createdAt,value
2023-04-09T00:00:24.322Z,3.88
2023-04-09T00:02:51.196Z,3.50
2023-04-09T00:05:18.088Z,4.20
2023-04-09T00:07:44.902Z,4.15
2023-04-09T00:10:11.909Z,3.80
2023-04-09T00:12:38.758Z,4.43
2023-04-09T00:15:06.221Z,3.75
2023-04-09T00:17:33.068Z,3.50
2023-04-09T00:19:59.971Z,4.22
2023-04-09T00:22:26.893Z,4.95
2023-04-09T00:24:53.834Z,3.95
2023-04-09T00:27:21.076Z,4.07
2023-04-09T00:29:47.982Z,3.30
2023-04-09T00:32:14.870Z,5.95
2023-04-09T00:34:41.750Z,4.85
2023-04-09T00:37:08.559Z,4.18
2023-04-09T00:39:35.447Z,6.47
2023-04-09T00:42:05.320Z,3.78
2023-04-09T00:44:32.206Z,3.65
2023-04-09T00:47:02.324Z,4.28
2023-04-09T00:49:29.319Z,3.80
2023-04-09T00:51:56.477Z,4.63
2023-04-09T00:54:23.357Z,4.30
2023-04-09T00:56:50.967Z,4.00
2023-04-09T00:59:18.157Z,4.20
2023-04-09T01:01:45.318Z,4.22
2023-04-09T01:04:12.380Z,4.13
2023-04-09T01:06:59.799Z,4.38
2023-04-09T01:09:41.472Z,3.75
2023-04-09T01:12:32.854Z,3.33
2023-04-09T01:15:07.092Z,3.85
2023-04-09T01:20:35.520Z,3.35
2023-04-09T01:23:16.376Z,4.10
2023-04-09T01:26:04.548Z,5.10
2023-04-09T01:28:44.747Z,5.70
2023-04-09T01:31:14.956Z,4.82
2023-04-09T01:33:42.871Z,4.53
2023-04-09T01:36:10.791Z,4.93
2023-04-09T01:38:41.517Z,6.03
2023-04-09T01:41:12.071Z,7.03
2023-04-09T01:43:39.373Z,7.40
2023-04-09T01:46:06.368Z,6.95
2023-04-09T01:48:34.247Z,6.72
2023-04-09T01:51:01.730Z,7.22
2023-04-09T01:53:28.623Z,6.18
2023-04-09T01:55:56.799Z,8.23
2023-04-09T01:58:24.815Z,8.00
2023-04-09T02:00:54.924Z,9.52
2023-04-09T02:03:26.599Z,8.75
2023-04-09T02:06:00.888Z,8.30
2023-04-09T02:08:30.391Z,8.05
2023-04-09T02:10:59.125Z,7.45
2023-04-09T02:13:27.260Z,6.45
2023-04-09T02:15:58.365Z,9.27
2023-04-09T02:18:28.543Z,7.22
2023-04-09T02:20:56.931Z,8.55
2023-04-09T02:23:24.457Z,7.28
2023-04-09T02:25:52.596Z,7.32
2023-04-09T02:28:19.610Z,8.60
2023-04-09T02:30:46.490Z,8.32
2023-04-09T02:33:13.480Z,9.63
2023-04-09T02:35:40.736Z,8.85
2023-04-09T02:38:13.702Z,8.40
2023-04-09T02:40:41.490Z,7.88
2023-04-09T02:43:09.847Z,7.68
2023-04-09T02:45:36.952Z,6.38
2023-04-09T02:48:04.230Z,5.45
2023-04-09T02:50:35.160Z,6.55
2023-04-09T02:53:02.636Z,6.22
2023-04-09T02:55:29.728Z,6.53
2023-04-09T02:57:56.656Z,7.47
2023-04-09T03:00:23.559Z,7.25
2023-04-09T03:02:50.628Z,7.72
2023-04-09T03:05:17.602Z,8.05
2023-04-09T03:07:44.453Z,8.15
2023-04-09T03:10:11.366Z,8.02
2023-04-09T03:12:38.243Z,7.90
2023-04-09T03:15:05.901Z,8.32
2023-04-09T03:17:32.944Z,7.00
2023-04-09T03:19:59.757Z,7.78
2023-04-09T03:22:38.723Z,6.90
2023-04-09T03:25:15.406Z,10.27
2023-04-09T03:27:42.466Z,8.40
2023-04-09T03:30:11.458Z,9.18
2023-04-09T03:32:43.689Z,8.02
2023-04-09T03:35:13.128Z,8.38
2023-04-09T03:37:41.758Z,7.55
2023-04-09T03:40:14.851Z,7.38
2023-04-09T03:42:43.233Z,8.55
2023-04-09T03:45:11.871Z,8.40
2023-04-09T03:47:43.325Z,8.65
2023-04-09T03:50:10.539Z,7.97
2023-04-09T03:52:52.586Z,8.73
2023-04-09T03:55:19.893Z,9.18
2023-04-09T03:57:48.369Z,9.48
2023-04-09T04:00:18.331Z,7.82
2023-04-09T04:02:52.172Z,8.52
2023-04-09T04:05:33.746Z,7.65
2023-04-09T04:08:05.230Z,8.35
2023-04-09T04:10:34.246Z,9.73
2023-04-09T04:13:02.371Z,11.02
2023-04-09T04:15:42.717Z,8.35
2023-04-09T04:18:11.543Z,8.63
2023-04-09T04:20:44.798Z,10.90
2023-04-09T04:23:14.227Z,11.90
2023-04-09T04:25:59.832Z,11.10
2023-04-09T04:28:33.947Z,9.70
2023-04-09T04:31:01.280Z,10.13
2023-04-09T04:33:30.649Z,9.52
2023-04-09T04:36:08.099Z,10.68
2023-04-09T04:38:52.043Z,10.93
2023-04-09T04:41:45.524Z,13.68
2023-04-09T04:44:17.944Z,12.10
2023-04-09T04:46:44.878Z,14.30
2023-04-09T04:49:11.799Z,11.02
2023-04-09T04:51:45.781Z,12.88
2023-04-09T04:54:14.747Z,13.23
2023-04-09T04:56:48.262Z,13.02
2023-04-09T04:59:29.916Z,13.45
2023-04-09T05:02:04.437Z,15.13
2023-04-09T05:04:36.931Z,14.23
2023-04-09T05:07:04.692Z,14.82
2023-04-09T05:09:31.570Z,14.98
2023-04-09T05:12:05.721Z,15.07
2023-04-09T05:14:32.598Z,15.93
2023-04-09T05:16:59.682Z,16.92
2023-04-09T05:22:02.895Z,14.10
2023-04-09T05:24:29.939Z,15.35
2023-04-09T05:26:57.510Z,14.40
2023-04-09T05:29:25.385Z,13.35
2023-04-09T05:31:52.214Z,15.30
2023-04-09T05:34:32.746Z,16.50
2023-04-09T05:37:00.286Z,15.02
2023-04-09T05:39:27.581Z,14.55
2023-04-09T05:41:56.320Z,14.65
2023-04-09T05:44:52.277Z,14.82
2023-04-09T05:47:20.838Z,15.52
2023-04-09T05:49:59.612Z,15.98
2023-04-09T05:52:27.638Z,18.98
2023-04-09T05:54:55.351Z,17.75
2023-04-09T06:00:00.397Z,14.82
2023-04-09T06:02:27.335Z,14.57
2023-04-09T06:04:54.603Z,14.55
2023-04-09T06:07:22.443Z,14.60
2023-04-09T06:09:49.323Z,16.02
2023-04-09T06:12:16.488Z,14.75
2023-04-09T06:14:43.436Z,15.35
2023-04-09T06:17:10.407Z,15.10
2023-04-09T06:19:37.260Z,13.52
2023-04-09T06:22:04.059Z,17.48
2023-04-09T06:24:33.169Z,16.63
2023-04-09T06:27:00.318Z,17.13
2023-04-09T06:29:27.299Z,17.58
2023-04-09T06:31:54.200Z,17.60
2023-04-09T06:34:21.688Z,17.60
2023-04-09T06:36:48.510Z,18.48
2023-04-09T06:39:15.414Z,15.43
2023-04-09T06:41:42.292Z,17.85
2023-04-09T06:44:24.435Z,19.00
2023-04-09T06:46:51.502Z,16.38
2023-04-09T06:49:18.339Z,16.67
2023-04-09T06:51:45.308Z,17.80
2023-04-09T06:54:12.097Z,16.83
2023-04-09T06:56:38.894Z,18.25
2023-04-09T06:59:05.851Z,23.65
2023-04-09T07:01:35.547Z,19.73
2023-04-09T07:04:02.575Z,18.40
2023-04-09T07:06:29.460Z,19.58
2023-04-09T07:08:56.258Z,18.75
2023-04-09T07:11:23.053Z,19.42
2023-04-09T07:13:49.853Z,19.20
2023-04-09T07:16:16.726Z,19.08
2023-04-09T07:18:43.606Z,16.38
2023-04-09T07:21:10.391Z,19.52
2023-04-09T07:23:37.369Z,16.30
2023-04-09T07:26:05.584Z,16.17
2023-04-09T07:28:32.813Z,14.65
2023-04-09T07:31:04.247Z,15.65
2023-04-09T07:33:31.489Z,17.17
2023-04-09T07:35:58.387Z,17.73
2023-04-09T07:38:25.226Z,20.25
2023-04-09T07:40:52.086Z,19.73
2023-04-09T07:43:19.753Z,12.85
2023-04-09T07:45:51.732Z,14.15
2023-04-09T07:48:18.627Z,15.73
2023-04-09T07:50:45.503Z,15.40
2023-04-09T07:53:12.502Z,15.73
2023-04-09T07:55:40.698Z,15.00
2023-04-09T07:58:07.585Z,14.13
2023-04-09T08:00:34.448Z,15.93
2023-04-09T08:03:03.814Z,16.52
2023-04-09T08:05:30.900Z,17.35
2023-04-09T08:07:57.793Z,16.70
2023-04-09T08:10:24.693Z,13.45
2023-04-09T08:12:51.548Z,13.40
2023-04-09T08:15:18.498Z,13.68
2023-04-09T08:17:45.674Z,15.82
2023-04-09T08:20:12.909Z,17.17
2023-04-09T08:22:41.193Z,19.33
2023-04-09T08:25:08.496Z,18.13
2023-04-09T08:27:36.155Z,21.60
2023-04-09T08:30:03.959Z,19.50
2023-04-09T08:32:30.996Z,18.73
2023-04-09T08:34:57.817Z,16.05
2023-04-09T08:37:24.664Z,15.80
2023-04-09T08:39:52.035Z,13.13
2023-04-09T08:42:19.787Z,14.02
2023-04-09T08:44:46.778Z,14.50
2023-04-09T08:47:13.895Z,16.73
2023-04-09T08:49:41.648Z,15.52
2023-04-09T08:52:08.573Z,15.18
2023-04-09T08:54:35.669Z,13.75
2023-04-09T08:57:05.797Z,14.73
2023-04-09T08:59:36.988Z,14.23
2023-04-09T09:02:08.625Z,15.90
2023-04-09T09:04:49.144Z,12.05
2023-04-09T09:07:17.383Z,16.60
2023-04-09T09:10:10.681Z,12.43
2023-04-09T09:12:41.484Z,11.32
2023-04-09T09:15:28.689Z,15.15
2023-04-09T09:17:57.672Z,12.77
2023-04-09T09:20:25.065Z,11.95
2023-04-09T09:22:54.951Z,10.43
2023-04-09T09:25:24.626Z,10.02
2023-04-09T09:27:52.223Z,8.48
2023-04-09T09:30:27.148Z,9.85
2023-04-09T09:33:04.676Z,8.50
2023-04-09T09:35:31.879Z,10.48
2023-04-09T09:38:04.123Z,8.07
2023-04-09T09:40:31.046Z,9.10
2023-04-09T09:42:58.191Z,9.38
2023-04-09T09:45:26.106Z,10.95
2023-04-09T09:47:54.449Z,9.30
2023-04-09T09:50:25.493Z,7.63
2023-04-09T09:52:58.134Z,6.63
2023-04-09T09:55:30.565Z,7.15
2023-04-09T09:58:02.052Z,5.90
2023-04-09T10:00:32.679Z,5.97
2023-04-09T10:03:24.802Z,6.53
2023-04-09T10:05:53.490Z,6.82
2023-04-09T10:08:22.351Z,5.70
2023-04-09T10:10:52.049Z,6.65
2023-04-09T10:13:31.537Z,7.80
2023-04-09T10:15:59.237Z,7.97
2023-04-09T10:18:26.376Z,6.80
2023-04-09T10:21:05.185Z,6.75
2023-04-09T10:23:42.325Z,8.18
2023-04-09T10:26:09.217Z,6.40
2023-04-09T10:28:38.189Z,6.47
2023-04-09T10:31:06.917Z,6.47
2023-04-09T10:33:37.069Z,6.63
2023-04-09T10:36:09.738Z,6.13
2023-04-09T10:38:41.068Z,6.03
2023-04-09T10:41:16.767Z,5.90
2023-04-09T10:43:43.843Z,7.65
2023-04-09T10:46:31.060Z,6.40
2023-04-09T10:49:18.132Z,8.45
2023-04-09T10:52:02.332Z,7.85
2023-04-09T10:54:35.010Z,6.45
2023-04-09T10:57:07.754Z,6.05
2023-04-09T10:59:37.920Z,5.93
2023-04-09T11:02:37.932Z,5.38
2023-04-09T11:05:29.059Z,5.32
2023-04-09T11:08:10.916Z,5.20
2023-04-09T11:10:39.508Z,4.97
2023-04-09T11:13:06.674Z,5.35
2023-04-09T11:15:36.800Z,5.07
2023-04-09T11:18:03.996Z,6.05
2023-04-09T11:20:31.313Z,6.47
2023-04-09T11:22:59.694Z,5.15
2023-04-09T11:25:29.063Z,5.40
2023-04-09T11:27:56.145Z,5.45
2023-04-09T11:30:23.616Z,5.85
2023-04-09T11:32:51.153Z,5.18
2023-04-09T11:35:21.086Z,5.00
2023-04-09T11:37:49.046Z,5.20
2023-04-09T11:40:17.932Z,5.75
2023-04-09T11:42:45.961Z,5.88
2023-04-09T11:45:15.639Z,5.95
2023-04-09T11:47:44.251Z,4.93
2023-04-09T11:50:12.748Z,5.13
2023-04-09T11:52:41.407Z,5.53
2023-04-09T11:55:09.775Z,4.32
2023-04-09T11:57:42.971Z,7.53
2023-04-09T12:00:14.621Z,6.97
2023-04-09T12:02:44.298Z,5.47
2023-04-09T12:05:14.154Z,5.00
2023-04-09T12:07:55.359Z,4.72
2023-04-09T12:10:30.717Z,4.28
2023-04-09T12:13:03.452Z,4.68
2023-04-09T12:15:35.348Z,5.80
2023-04-09T12:18:03.404Z,5.03
2023-04-09T12:20:35.862Z,4.57
2023-04-09T12:23:04.432Z,6.60
2023-04-09T12:25:42.901Z,5.25
2023-04-09T12:28:12.281Z,4.40
2023-04-09T12:30:39.206Z,4.20
2023-04-09T12:33:09.500Z,4.07
2023-04-09T12:35:38.273Z,4.38
2023-04-09T12:38:05.731Z,4.93
2023-04-09T12:40:32.751Z,4.85
2023-04-09T12:42:59.852Z,4.82
2023-04-09T12:45:27.893Z,4.53
2023-04-09T12:47:54.897Z,4.10
2023-04-09T12:50:21.955Z,4.45
2023-04-09T12:52:48.926Z,4.43
2023-04-09T12:55:16.137Z,4.38
2023-04-09T12:57:49.209Z,5.47
2023-04-09T13:00:16.425Z,4.28
2023-04-09T13:02:43.660Z,4.85
2023-04-09T13:05:10.671Z,4.05
2023-04-09T13:07:37.526Z,4.82
2023-04-09T13:10:04.882Z,3.95
2023-04-09T13:12:31.752Z,3.83
2023-04-09T13:14:59.342Z,3.80
2023-04-09T13:17:26.511Z,3.47
2023-04-09T13:19:53.656Z,3.53
2023-04-09T13:22:20.772Z,3.70
2023-04-09T13:24:47.652Z,3.80
2023-04-09T13:27:14.623Z,3.50
2023-04-09T13:29:41.496Z,3.60
2023-04-09T13:32:10.560Z,3.42
2023-04-09T13:34:39.098Z,3.17
2023-04-09T13:37:05.945Z,3.15
2023-04-09T13:39:33.178Z,3.15
2023-04-09T13:42:01.397Z,3.33
2023-04-09T13:44:29.097Z,3.47
2023-04-09T13:46:55.986Z,4.85
2023-04-09T13:49:22.886Z,4.82
2023-04-09T13:51:51.029Z,4.85
2023-04-09T13:54:17.965Z,4.63
2023-04-09T13:56:46.182Z,4.20
2023-04-09T13:59:13.134Z,3.65
2023-04-09T14:01:40.098Z,3.40
2023-04-09T14:04:07.121Z,4.18
2023-04-09T14:06:34.122Z,3.53
2023-04-09T14:09:01.451Z,4.05
2023-04-09T14:11:28.428Z,5.22
2023-04-09T14:13:56.027Z,3.33
2023-04-09T14:16:23.710Z,3.33
2023-04-09T14:18:51.004Z,3.65
2023-04-09T14:21:18.478Z,3.05
2023-04-09T14:23:45.684Z,3.00
2023-04-09T14:26:12.543Z,3.03
2023-04-09T14:28:39.431Z,3.13
2023-04-09T14:31:06.470Z,3.00
2023-04-09T14:33:33.404Z,2.70
2023-04-09T14:36:00.391Z,2.22
2023-04-09T14:38:27.556Z,2.45
2023-04-09T14:40:54.505Z,1.90
2023-04-09T14:43:21.301Z,1.98
2023-04-09T14:45:48.163Z,2.47
2023-04-09T14:48:15.081Z,2.50
2023-04-09T14:50:43.087Z,2.33
2023-04-09T14:53:10.294Z,2.20
2023-04-09T14:55:37.106Z,2.08
2023-04-09T14:58:04.661Z,1.83
2023-04-09T15:00:31.953Z,1.90
2023-04-09T15:02:59.495Z,3.03
2023-04-09T15:05:27.648Z,1.65
2023-04-09T15:07:55.867Z,1.90
2023-04-09T15:10:22.709Z,1.85
2023-04-09T15:12:49.584Z,1.95
2023-04-09T15:15:16.605Z,2.28
2023-04-09T15:17:43.569Z,1.90
2023-04-09T15:20:11.300Z,1.70
2023-04-09T15:22:38.140Z,2.00
2023-04-09T15:25:05.541Z,2.50
2023-04-09T15:27:32.763Z,1.85
2023-04-09T15:29:59.580Z,1.80
2023-04-09T15:32:26.374Z,1.77
2023-04-09T15:34:53.339Z,2.00
2023-04-09T15:37:20.680Z,1.73
2023-04-09T15:39:47.506Z,1.60
2023-04-09T15:42:20.226Z,1.50
2023-04-09T15:44:47.122Z,1.77
2023-04-09T15:47:13.943Z,1.80
2023-04-09T15:49:40.874Z,2.50
2023-04-09T15:52:07.729Z,2.83
2023-04-09T15:54:34.656Z,2.03
2023-04-09T15:57:02.034Z,2.20
2023-04-09T15:59:29.020Z,1.75
2023-04-09T16:01:55.890Z,1.98
2023-04-09T16:04:22.777Z,2.00
2023-04-09T16:06:49.653Z,2.13
2023-04-09T16:09:16.482Z,1.88
2023-04-09T16:11:43.309Z,1.65
2023-04-09T16:14:10.584Z,1.70
2023-04-09T16:16:37.640Z,1.52
2023-04-09T16:19:04.531Z,1.60
2023-04-09T16:21:32.199Z,1.63
2023-04-09T16:24:00.408Z,1.63
2023-04-09T16:26:27.244Z,1.52
2023-04-09T16:28:54.418Z,1.52
2023-04-09T16:31:21.631Z,1.10
2023-04-09T16:33:48.506Z,1.65
2023-04-09T16:36:15.539Z,1.52
2023-04-09T16:38:42.350Z,1.70
2023-04-09T16:41:09.183Z,1.90
2023-04-09T16:43:36.055Z,1.90
2023-04-09T16:46:02.982Z,1.63
2023-04-09T16:48:29.841Z,1.60
2023-04-09T16:50:56.649Z,1.60
2023-04-09T16:53:23.450Z,1.60
2023-04-09T16:55:50.619Z,1.88
2023-04-09T16:58:17.396Z,1.70
2023-04-09T17:00:46.155Z,1.70
2023-04-09T17:03:14.296Z,1.40
2023-04-09T17:05:41.249Z,1.55
2023-04-09T17:08:08.025Z,1.52
2023-04-09T17:10:36.915Z,1.30
2023-04-09T17:13:03.728Z,1.40
2023-04-09T17:15:30.750Z,1.50
2023-04-09T17:17:58.500Z,1.42
2023-04-09T17:20:26.071Z,1.98
2023-04-09T17:22:53.106Z,2.38
2023-04-09T17:25:20.673Z,2.40
2023-04-09T17:27:47.520Z,2.30
2023-04-09T17:30:14.443Z,2.10
2023-04-09T17:32:43.668Z,2.13
2023-04-09T17:35:11.002Z,2.00
2023-04-09T17:37:38.631Z,1.90
2023-04-09T17:40:06.528Z,1.90
2023-04-09T17:42:33.648Z,1.80
2023-04-09T17:45:00.882Z,1.85
2023-04-09T17:47:27.798Z,1.92
2023-04-09T17:49:54.759Z,2.22
2023-04-09T17:52:22.479Z,2.22
2023-04-09T17:54:50.923Z,1.92
2023-04-09T17:57:18.478Z,1.73
2023-04-09T17:59:45.472Z,1.67
2023-04-09T18:02:12.748Z,1.60
2023-04-09T18:04:40.111Z,1.70
2023-04-09T18:07:07.944Z,1.63
2023-04-09T18:09:35.095Z,1.50
2023-04-09T18:12:02.830Z,1.60
2023-04-09T18:14:32.507Z,1.70
2023-04-09T18:16:59.763Z,1.80
2023-04-09T18:19:26.812Z,1.83
2023-04-09T18:21:53.854Z,1.70
2023-04-09T18:24:20.990Z,1.95
2023-04-09T18:26:48.003Z,2.60
2023-04-09T18:29:14.977Z,2.00
2023-04-09T18:31:42.123Z,2.13
2023-04-09T18:34:09.224Z,2.50
2023-04-09T18:36:36.268Z,2.30
2023-04-09T18:39:05.063Z,2.60
2023-04-09T18:41:32.116Z,3.05
2023-04-09T18:43:59.095Z,2.60
2023-04-09T18:46:26.805Z,2.60
2023-04-09T18:48:53.954Z,2.15
2023-04-09T18:51:21.199Z,1.95
2023-04-09T18:53:52.915Z,1.75
2023-04-09T18:56:21.101Z,1.42
2023-04-09T18:58:48.677Z,2.03
2023-04-09T19:01:17.560Z,1.83
2023-04-09T19:03:45.330Z,1.80
2023-04-09T19:06:18.256Z,1.85
2023-04-09T19:08:46.833Z,2.10
2023-04-09T19:11:14.862Z,1.90
2023-04-09T19:13:41.916Z,1.90
2023-04-09T19:16:09.453Z,2.00
2023-04-09T19:18:37.387Z,1.92
2023-04-09T19:21:05.616Z,1.80
2023-04-09T19:23:34.368Z,3.35
2023-04-09T19:26:01.872Z,1.98
2023-04-09T19:28:28.902Z,2.53
2023-04-09T19:30:56.491Z,2.38
2023-04-09T19:33:25.020Z,2.78
2023-04-09T19:35:55.462Z,2.30
2023-04-09T19:38:22.662Z,2.90
2023-04-09T19:40:49.487Z,2.30
2023-04-09T19:43:16.466Z,2.30
2023-04-09T19:45:43.552Z,2.03
2023-04-09T19:48:10.565Z,2.47
2023-04-09T19:50:38.974Z,2.50
2023-04-09T19:53:06.967Z,2.47
2023-04-09T19:55:34.819Z,2.40
2023-04-09T19:58:02.115Z,2.50
2023-04-09T20:00:29.356Z,2.42
2023-04-09T20:02:57.232Z,2.45
2023-04-09T20:05:25.011Z,2.42
2023-04-09T20:07:52.973Z,2.88
2023-04-09T20:10:20.121Z,3.22
2023-04-09T20:12:48.467Z,3.58
2023-04-09T20:15:17.477Z,2.83
2023-04-09T20:17:44.407Z,4.32
2023-04-09T20:20:12.136Z,2.67
2023-04-09T20:22:43.171Z,4.38
2023-04-09T20:25:11.881Z,2.50
2023-04-09T20:27:38.851Z,3.28
2023-04-09T20:30:07.132Z,3.70
2023-04-09T20:32:35.809Z,2.90
2023-04-09T20:35:02.658Z,4.18
2023-04-09T20:37:29.476Z,2.88
2023-04-09T20:39:58.475Z,2.95
2023-04-09T20:42:25.277Z,3.17
2023-04-09T20:44:52.813Z,3.17
2023-04-09T20:47:21.115Z,2.90
2023-04-09T20:49:49.025Z,2.95
2023-04-09T20:52:15.917Z,2.70
2023-04-09T20:54:43.116Z,3.08
2023-04-09T20:57:12.028Z,3.20
2023-04-09T20:59:40.111Z,3.65
2023-04-09T21:02:08.442Z,2.92
2023-04-09T21:04:35.345Z,3.95
2023-04-09T21:07:02.198Z,4.35
2023-04-09T21:09:29.568Z,3.00
2023-04-09T21:11:56.410Z,2.85
2023-04-09T21:14:23.246Z,3.03
2023-04-09T21:16:50.350Z,3.28
2023-04-09T21:19:17.228Z,3.35
2023-04-09T21:21:44.003Z,3.28
2023-04-09T21:24:10.841Z,3.00
2023-04-09T21:26:50.157Z,3.33
2023-04-09T21:29:22.171Z,3.58
2023-04-09T21:31:49.955Z,3.40
2023-04-09T21:34:17.038Z,3.38
2023-04-09T21:36:45.414Z,2.90
2023-04-09T21:39:12.656Z,3.80
2023-04-09T21:41:39.674Z,3.20
2023-04-09T21:44:08.735Z,3.38
2023-04-09T21:46:37.074Z,4.82
2023-04-09T21:49:04.629Z,3.40
2023-04-09T21:51:32.285Z,3.28
2023-04-09T21:54:07.309Z,3.78
2023-04-09T21:56:35.426Z,5.07
2023-04-09T21:59:02.955Z,3.05
2023-04-09T22:01:31.380Z,2.80
2023-04-09T22:03:59.845Z,3.13
2023-04-09T22:06:28.708Z,3.45
2023-04-09T22:08:57.527Z,3.53
2023-04-09T22:11:29.315Z,3.70
2023-04-09T22:13:57.048Z,3.28
2023-04-09T22:16:24.981Z,3.30
2023-04-09T22:18:53.438Z,4.05
2023-04-09T22:21:20.784Z,3.00
2023-04-09T22:23:47.614Z,3.40
2023-04-09T22:26:14.471Z,4.10
2023-04-09T22:28:41.275Z,3.08
2023-04-09T22:31:08.319Z,3.00
2023-04-09T22:33:35.395Z,2.97
2023-04-09T22:36:02.386Z,3.05
2023-04-09T22:38:29.278Z,3.30
2023-04-09T22:40:56.185Z,3.08
2023-04-09T22:43:23.226Z,3.20
2023-04-09T22:45:54.846Z,3.40
2023-04-09T22:48:22.952Z,3.08
2023-04-09T22:50:50.424Z,3.63
2023-04-09T22:53:20.793Z,3.30
2023-04-09T22:55:51.648Z,3.97
2023-04-09T22:58:19.134Z,3.47
2023-04-09T23:00:47.280Z,4.32
2023-04-09T23:03:14.533Z,4.25
2023-04-09T23:05:42.081Z,3.40
2023-04-09T23:08:09.821Z,4.80
2023-04-09T23:10:36.667Z,3.97
2023-04-09T23:13:03.650Z,3.67
2023-04-09T23:15:30.823Z,4.40
2023-04-09T23:17:57.748Z,3.83
2023-04-09T23:20:24.560Z,3.58
2023-04-09T23:22:51.400Z,4.82
2023-04-09T23:25:20.242Z,4.22
2023-04-09T23:27:47.148Z,4.38
2023-04-09T23:30:17.049Z,4.32
2023-04-09T23:32:49.643Z,4.28
2023-04-09T23:35:16.716Z,4.00
2023-04-09T23:37:43.710Z,3.83
2023-04-09T23:40:11.231Z,4.60
2023-04-09T23:42:38.199Z,6.05
2023-04-09T23:45:06.416Z,3.85
2023-04-09T23:47:35.581Z,4.97
2023-04-09T23:50:07.604Z,5.82
2023-04-09T23:52:35.706Z,5.00
2023-04-09T23:55:03.955Z,3.83
2023-04-09T23:57:30.966Z,4.25
2023-04-09T23:59:57.793Z,4.03
